createdAt,value
2023-03-10T00:01:36.139Z,27.35
2023-03-10T00:04:02.338Z,25.67
2023-03-10T00:06:29.496Z,28.17
2023-03-10T00:08:55.356Z,25.52
2023-03-10T00:11:21.603Z,25.85
2023-03-10T00:13:47.397Z,25.83
2023-03-10T00:16:22.445Z,22.80
2023-03-10T00:18:48.380Z,26.20
2023-03-10T00:21:15.367Z,21.00
2023-03-10T00:23:41.179Z,23.33
2023-03-10T00:26:06.893Z,22.90
2023-03-10T00:28:32.632Z,21.80
2023-03-10T00:31:05.872Z,20.42
2023-03-10T00:33:32.847Z,19.20
2023-03-10T00:36:02.763Z,20.17
2023-03-10T00:38:28.658Z,19.00
2023-03-10T00:40:58.405Z,20.58
2023-03-10T00:43:24.118Z,20.40
2023-03-10T00:45:49.844Z,21.48
2023-03-10T00:48:15.561Z,19.92
2023-03-10T00:50:41.308Z,21.73
2023-03-10T00:53:07.073Z,19.67
2023-03-10T00:55:32.791Z,20.20
2023-03-10T00:57:58.522Z,18.38
2023-03-10T01:00:24.386Z,17.65
2023-03-10T01:02:52.191Z,20.33
2023-03-10T01:05:18.289Z,18.63
2023-03-10T01:07:44.084Z,22.17
2023-03-10T01:10:10.779Z,21.80
2023-03-10T01:12:36.541Z,22.20
2023-03-10T01:15:02.312Z,21.10
2023-03-10T01:17:28.048Z,18.35
2023-03-10T01:19:53.778Z,21.40
2023-03-10T01:22:19.529Z,22.90
2023-03-10T01:24:45.588Z,19.48
2023-03-10T01:27:11.308Z,23.88
2023-03-10T01:29:37.060Z,22.48
2023-03-10T01:32:02.972Z,22.65
2023-03-10T01:34:28.703Z,20.98
2023-03-10T01:36:54.415Z,23.23
2023-03-10T01:39:20.154Z,22.00
2023-03-10T01:41:45.973Z,23.95
2023-03-10T01:44:15.915Z,21.55
2023-03-10T01:46:43.968Z,22.10
2023-03-10T01:49:23.739Z,21.08
2023-03-10T01:52:02.776Z,17.55
2023-03-10T01:54:32.038Z,17.63
2023-03-10T01:56:57.961Z,20.38
2023-03-10T01:59:25.192Z,22.27
2023-03-10T02:01:51.299Z,19.35
2023-03-10T02:04:24.251Z,18.67
2023-03-10T02:06:50.695Z,19.67
2023-03-10T02:09:17.905Z,21.15
2023-03-10T02:11:44.695Z,20.20
2023-03-10T02:14:10.454Z,20.35
2023-03-10T02:16:36.324Z,23.45
2023-03-10T02:19:03.769Z,20.55
2023-03-10T02:21:35.256Z,20.73
2023-03-10T02:24:12.946Z,22.67
2023-03-10T02:26:45.363Z,21.33
2023-03-10T02:29:16.936Z,18.60
2023-03-10T02:31:43.500Z,19.60
2023-03-10T02:34:09.423Z,19.92
2023-03-10T02:36:35.291Z,19.77
2023-03-10T02:39:01.017Z,19.35
2023-03-10T02:41:28.603Z,20.75
2023-03-10T02:43:55.547Z,15.30
2023-03-10T02:46:21.850Z,17.35
2023-03-10T02:48:47.650Z,19.02
2023-03-10T02:51:18.898Z,19.65
2023-03-10T02:53:44.650Z,17.90
2023-03-10T02:56:10.804Z,15.95
2023-03-10T02:58:36.562Z,20.27
2023-03-10T03:01:04.360Z,19.13
2023-03-10T03:03:30.298Z,19.42
2023-03-10T03:05:56.400Z,17.85
2023-03-10T03:08:22.392Z,20.17
2023-03-10T03:10:48.517Z,18.23
2023-03-10T03:13:14.578Z,16.83
2023-03-10T03:15:40.469Z,12.18
2023-03-10T03:18:06.526Z,14.85
2023-03-10T03:20:33.096Z,14.35
2023-03-10T03:22:58.891Z,14.82
2023-03-10T03:25:26.104Z,13.00
2023-03-10T03:27:51.868Z,16.13
2023-03-10T03:30:22.122Z,18.20
2023-03-10T03:32:48.089Z,15.10
2023-03-10T03:35:15.796Z,13.45
2023-03-10T03:37:41.822Z,13.20
2023-03-10T03:40:13.868Z,15.50
2023-03-10T03:42:40.592Z,12.68
2023-03-10T03:45:07.400Z,13.05
2023-03-10T03:47:33.153Z,16.55
2023-03-10T03:49:58.870Z,13.43
2023-03-10T03:52:24.574Z,13.30
2023-03-10T03:54:50.333Z,12.95
2023-03-10T03:57:16.059Z,11.48
2023-03-10T03:59:42.242Z,11.52
2023-03-10T04:02:08.107Z,11.73
2023-03-10T04:04:33.892Z,14.07
2023-03-10T04:07:00.532Z,23.15
2023-03-10T04:09:26.529Z,15.10
2023-03-10T04:11:52.301Z,12.52
2023-03-10T04:14:18.035Z,12.32
2023-03-10T04:16:44.033Z,13.10
2023-03-10T04:19:10.091Z,13.90
2023-03-10T04:21:35.956Z,12.18
2023-03-10T04:24:02.095Z,12.38
2023-03-10T04:26:28.362Z,17.67
2023-03-10T04:28:54.144Z,20.17
2023-03-10T04:31:21.196Z,14.82
2023-03-10T04:33:47.222Z,14.45
2023-03-10T04:36:12.992Z,14.52
2023-03-10T04:38:38.840Z,10.73
2023-03-10T04:41:04.637Z,13.52
2023-03-10T04:43:30.714Z,10.98
2023-03-10T04:45:56.712Z,13.25
2023-03-10T04:48:23.729Z,15.65
2023-03-10T04:50:56.499Z,13.55
2023-03-10T04:53:22.404Z,14.38
2023-03-10T04:55:48.176Z,12.32
2023-03-10T04:58:13.911Z,12.25
2023-03-10T05:00:50.082Z,13.38
2023-03-10T05:03:22.307Z,12.25
2023-03-10T05:05:48.065Z,13.38
2023-03-10T05:08:13.946Z,13.77
2023-03-10T05:10:40.389Z,11.65
2023-03-10T05:13:07.486Z,11.52
2023-03-10T05:15:33.885Z,11.43
2023-03-10T05:18:12.140Z,13.07
2023-03-10T05:20:40.734Z,12.70
2023-03-10T05:23:06.580Z,15.40
2023-03-10T05:25:32.547Z,12.80
2023-03-10T05:27:58.424Z,12.18
2023-03-10T05:30:24.401Z,11.65
2023-03-10T05:32:52.034Z,10.45
2023-03-10T05:35:18.516Z,11.85
2023-03-10T05:37:44.500Z,12.07
2023-03-10T05:40:13.132Z,11.57
2023-03-10T05:42:39.498Z,12.43
2023-03-10T05:45:06.428Z,11.90
2023-03-10T05:47:33.344Z,12.30
2023-03-10T05:49:59.860Z,11.95
2023-03-10T05:52:25.866Z,11.57
2023-03-10T05:54:51.670Z,10.52
2023-03-10T05:57:17.480Z,11.63
2023-03-10T05:59:43.588Z,10.13
2023-03-10T06:02:09.443Z,11.40
2023-03-10T06:04:35.381Z,20.17
2023-03-10T06:07:09.625Z,12.90
2023-03-10T06:09:35.429Z,16.30
2023-03-10T06:12:01.607Z,13.75
2023-03-10T06:14:29.035Z,12.68
2023-03-10T06:16:55.785Z,12.40
2023-03-10T06:19:57.009Z,14.85
2023-03-10T06:22:32.246Z,14.00
2023-03-10T06:24:58.326Z,13.07
2023-03-10T06:27:24.235Z,14.27
2023-03-10T06:32:33.636Z,16.73
2023-03-10T06:37:39.992Z,15.32
2023-03-10T06:40:08.181Z,16.58
2023-03-10T06:42:34.485Z,14.38
2023-03-10T06:45:00.835Z,15.57
2023-03-10T06:47:33.100Z,13.80
2023-03-10T06:50:01.163Z,14.45
2023-03-10T06:52:34.401Z,15.25
2023-03-10T06:55:01.037Z,18.83
2023-03-10T06:57:27.837Z,16.13
2023-03-10T06:59:53.920Z,17.33
2023-03-10T07:02:20.666Z,14.85
2023-03-10T07:04:46.730Z,16.48
2023-03-10T07:07:15.600Z,14.15
2023-03-10T07:09:43.961Z,15.55
2023-03-10T07:12:14.835Z,13.55
2023-03-10T07:20:32.824Z,15.25
2023-03-10T07:22:58.829Z,16.10
2023-03-10T07:25:30.529Z,18.80
2023-03-10T07:27:59.045Z,18.27
2023-03-10T07:36:15.184Z,15.27
2023-03-10T07:38:42.053Z,13.25
2023-03-10T07:41:09.487Z,12.05
2023-03-10T07:43:35.917Z,17.20
2023-03-10T07:46:06.072Z,16.98
2023-03-10T07:48:49.509Z,14.82
2023-03-10T07:51:15.441Z,16.80
2023-03-10T07:56:51.029Z,15.52
2023-03-10T07:59:17.275Z,18.45
2023-03-10T08:01:53.056Z,14.32
2023-03-10T08:04:24.919Z,16.23
2023-03-10T08:06:51.341Z,13.93
2023-03-10T08:09:17.214Z,14.40
2023-03-10T08:11:43.155Z,16.08
2023-03-10T08:14:09.077Z,13.48
2023-03-10T08:16:35.579Z,13.13
2023-03-10T08:22:30.679Z,15.38
2023-03-10T08:24:58.837Z,13.55
2023-03-10T08:27:28.787Z,18.50
2023-03-10T08:29:55.029Z,15.07
2023-03-10T08:32:20.905Z,12.57
2023-03-10T08:34:48.665Z,13.48
2023-03-10T08:37:14.498Z,10.20
2023-03-10T08:39:40.672Z,13.43
2023-03-10T08:42:06.626Z,11.45
2023-03-10T08:44:32.481Z,11.98
2023-03-10T08:46:58.480Z,10.98
2023-03-10T08:49:24.787Z,15.43
2023-03-10T08:51:50.859Z,11.07
2023-03-10T08:54:18.880Z,10.20
2023-03-10T08:56:44.681Z,8.75
2023-03-10T08:59:11.111Z,10.15
2023-03-10T09:01:37.245Z,11.52
2023-03-10T09:04:04.310Z,7.32
2023-03-10T09:06:30.530Z,6.30
2023-03-10T09:08:56.830Z,6.15
2023-03-10T09:11:25.170Z,6.70
2023-03-10T09:13:51.445Z,5.85
2023-03-10T09:16:20.112Z,6.50
2023-03-10T09:18:49.440Z,5.35
2023-03-10T09:21:16.194Z,3.63
2023-03-10T09:23:43.550Z,4.85
2023-03-10T09:26:11.617Z,5.32
2023-03-10T09:28:37.660Z,4.03
2023-03-10T09:31:04.274Z,4.45
2023-03-10T09:33:31.808Z,4.25
2023-03-10T09:36:06.512Z,3.10
2023-03-10T09:38:33.044Z,5.78
2023-03-10T09:41:02.152Z,2.67
2023-03-10T09:43:29.469Z,4.68
2023-03-10T09:46:15.735Z,5.30
2023-03-10T09:48:51.209Z,5.22
2023-03-10T09:51:38.751Z,4.85
2023-03-10T09:54:23.055Z,2.90
2023-03-10T09:56:50.839Z,3.55
2023-03-10T09:59:21.682Z,5.90
2023-03-10T10:01:52.330Z,6.22
2023-03-10T10:04:42.414Z,6.88
2023-03-10T10:07:20.413Z,4.10
2023-03-10T10:09:50.530Z,5.65
2023-03-10T10:12:18.269Z,8.30
2023-03-10T10:14:57.263Z,7.65
2023-03-10T10:17:35.586Z,8.15
2023-03-10T10:20:16.434Z,11.07
2023-03-10T10:22:51.625Z,8.60
2023-03-10T10:25:22.097Z,8.23
2023-03-10T10:27:53.372Z,9.80
2023-03-10T10:30:49.837Z,7.45
2023-03-10T10:33:16.915Z,8.73
2023-03-10T10:36:00.262Z,9.15
2023-03-10T10:41:22.592Z,7.85
2023-03-10T10:46:32.693Z,8.32
2023-03-10T10:49:09.994Z,9.32
2023-03-10T11:11:12.098Z,16.17
2023-03-10T11:13:55.648Z,8.20
2023-03-10T11:16:36.064Z,12.77
2023-03-10T11:19:09.014Z,15.48
2023-03-10T11:38:29.183Z,15.23
2023-03-10T11:40:59.876Z,12.50
2023-03-10T11:49:30.641Z,14.40
2023-03-10T11:52:10.180Z,15.20
2023-03-10T11:54:39.383Z,18.02
2023-03-10T11:57:29.931Z,12.75
2023-03-10T12:02:45.474Z,10.55
2023-03-10T12:08:15.409Z,11.05
2023-03-10T13:06:30.178Z,6.63
2023-03-10T13:23:27.219Z,8.98
2023-03-10T13:25:57.450Z,5.78
2023-03-10T13:28:23.849Z,6.03
2023-03-10T13:42:43.454Z,6.15
2023-03-10T13:45:13.432Z,6.22
2023-03-10T13:47:45.012Z,6.70
2023-03-10T13:50:16.283Z,5.20
2023-03-10T13:52:53.919Z,6.53
2023-03-10T13:55:19.793Z,6.07
2023-03-10T13:57:53.780Z,6.85
2023-03-10T14:00:25.202Z,5.57
2023-03-10T14:02:54.593Z,8.55
2023-03-10T14:08:25.577Z,7.15
2023-03-10T14:17:04.459Z,6.82
2023-03-10T14:19:38.339Z,7.32
2023-03-10T14:22:21.155Z,6.43
2023-03-10T14:24:47.212Z,5.05
2023-03-10T14:27:15.265Z,6.15
2023-03-10T14:29:47.666Z,4.53
2023-03-10T14:32:14.568Z,6.10
2023-03-10T14:34:40.773Z,5.78
2023-03-10T14:37:07.166Z,5.82
2023-03-10T14:39:36.422Z,5.95
2023-03-10T14:42:02.797Z,6.78
2023-03-10T14:44:28.975Z,5.90
2023-03-10T14:46:55.445Z,6.57
2023-03-10T14:52:05.677Z,4.90
2023-03-10T14:54:31.512Z,5.80
2023-03-10T14:57:05.015Z,5.90
2023-03-10T14:59:31.255Z,7.75
2023-03-10T15:01:59.450Z,6.38
2023-03-10T15:04:37.568Z,5.75
2023-03-10T15:07:03.466Z,6.32
2023-03-10T15:09:31.291Z,6.28
2023-03-10T15:11:59.515Z,6.85
2023-03-10T15:14:27.594Z,8.73
2023-03-10T15:16:54.934Z,7.30
2023-03-10T15:19:22.625Z,8.25
2023-03-10T15:21:49.010Z,8.60
2023-03-10T15:24:15.213Z,11.88
2023-03-10T15:26:41.354Z,12.23
2023-03-10T15:29:07.480Z,7.95
2023-03-10T15:31:34.193Z,12.77
2023-03-10T15:34:13.645Z,10.85
2023-03-10T15:36:42.125Z,11.38
2023-03-10T15:39:08.924Z,13.00
2023-03-10T15:44:31.412Z,13.10
2023-03-10T15:46:59.602Z,14.38
2023-03-10T15:49:28.241Z,11.57
2023-03-10T15:52:05.891Z,12.98
2023-03-10T15:54:48.682Z,14.55
2023-03-10T15:57:15.789Z,13.13
2023-03-10T15:59:42.923Z,10.45
2023-03-10T16:02:09.908Z,14.10
2023-03-10T16:16:20.985Z,16.73
2023-03-10T16:19:12.712Z,16.20
2023-03-10T16:21:38.664Z,18.58
2023-03-10T16:24:10.906Z,20.55
2023-03-10T16:26:37.005Z,16.30
2023-03-10T16:40:08.231Z,17.13
2023-03-10T16:42:44.932Z,18.13
2023-03-10T16:45:15.421Z,17.02
2023-03-10T16:47:45.503Z,18.88
2023-03-10T16:59:22.698Z,14.45
2023-03-10T17:01:49.622Z,16.00
2023-03-10T17:04:15.558Z,14.18
2023-03-10T17:06:41.683Z,16.05
2023-03-10T17:35:16.676Z,15.20
2023-03-10T17:37:44.126Z,13.90
2023-03-10T17:40:14.917Z,13.57
2023-03-10T17:48:08.356Z,12.27
2023-03-10T17:50:35.287Z,10.45
2023-03-10T17:55:52.504Z,10.98
2023-03-10T17:58:19.279Z,9.80
2023-03-10T18:00:45.601Z,12.63
2023-03-10T18:03:14.346Z,13.30
2023-03-10T18:05:42.565Z,11.73
2023-03-10T18:08:08.730Z,8.85
2023-03-10T18:10:35.134Z,10.98
2023-03-10T18:13:02.506Z,10.32
2023-03-10T18:15:32.044Z,8.75
2023-03-10T18:17:59.975Z,10.52
2023-03-10T18:20:28.627Z,9.90
2023-03-10T18:22:57.266Z,9.82
2023-03-10T18:25:26.238Z,8.65
2023-03-10T18:28:09.237Z,10.13
2023-03-10T18:36:32.938Z,8.82
2023-03-10T18:39:04.015Z,10.52
2023-03-10T18:41:39.102Z,10.77
2023-03-10T18:44:06.357Z,10.45
2023-03-10T18:46:35.087Z,12.00
2023-03-10T18:49:01.347Z,14.73
2023-03-10T18:51:27.786Z,10.68
2023-03-10T18:53:54.068Z,10.35
2023-03-10T18:56:20.146Z,9.07
2023-03-10T18:58:47.597Z,10.88
2023-03-10T19:01:40.115Z,11.75
2023-03-10T19:04:53.061Z,11.02
2023-03-10T19:07:23.258Z,10.98
2023-03-10T19:09:53.718Z,9.95
2023-03-10T19:12:21.410Z,10.38
2023-03-10T19:14:52.260Z,8.90
2023-03-10T19:17:18.790Z,8.18
2023-03-10T19:19:46.021Z,9.27
2023-03-10T19:22:14.282Z,10.30
2023-03-10T19:24:40.341Z,10.10
2023-03-10T19:27:06.545Z,11.23
2023-03-10T19:32:13.598Z,11.85
2023-03-10T19:37:38.545Z,15.48
2023-03-10T19:40:07.864Z,13.82
2023-03-10T19:42:34.643Z,15.93
2023-03-10T19:45:01.164Z,13.02
2023-03-10T19:47:29.398Z,14.05
2023-03-10T19:49:55.498Z,17.08
2023-03-10T19:52:21.729Z,14.82
2023-03-10T19:54:48.019Z,16.23
2023-03-10T19:57:16.503Z,15.68
2023-03-10T19:59:43.578Z,19.85
2023-03-10T20:02:13.369Z,18.45
2023-03-10T20:05:07.452Z,17.05
2023-03-10T20:07:33.306Z,17.95
2023-03-10T20:10:05.678Z,17.35
2023-03-10T20:12:31.661Z,17.85
2023-03-10T20:14:59.730Z,19.25
2023-03-10T20:17:26.075Z,16.60
2023-03-10T20:19:52.047Z,19.77
2023-03-10T20:22:18.723Z,24.98
2023-03-10T20:24:47.733Z,18.75
2023-03-10T20:27:14.303Z,21.65
2023-03-10T20:29:42.221Z,19.50
2023-03-10T20:32:08.179Z,19.63
2023-03-10T20:34:34.380Z,19.48
2023-03-10T20:37:00.394Z,20.80
2023-03-10T20:39:27.212Z,17.90
2023-03-10T20:41:53.571Z,20.60
2023-03-10T20:44:19.837Z,19.40
2023-03-10T20:46:45.839Z,18.42
2023-03-10T20:49:12.300Z,17.67
2023-03-10T20:51:39.215Z,21.13
2023-03-10T20:54:05.737Z,19.80
2023-03-10T20:56:32.663Z,21.52
2023-03-10T20:59:00.999Z,19.75
2023-03-10T21:01:28.240Z,22.50
2023-03-10T21:04:09.276Z,21.05
2023-03-10T21:06:36.896Z,23.30
2023-03-10T21:09:10.475Z,19.30
2023-03-10T21:11:37.113Z,21.88
2023-03-10T21:14:03.251Z,19.67
2023-03-10T21:16:29.378Z,24.17
2023-03-10T21:18:56.742Z,20.63
2023-03-10T21:21:23.089Z,24.00
2023-03-10T21:23:49.211Z,14.85
2023-03-10T21:26:16.460Z,23.92
2023-03-10T21:28:42.980Z,26.40
2023-03-10T21:31:09.082Z,26.10
2023-03-10T21:33:43.873Z,22.90
2023-03-10T21:36:20.479Z,23.95
2023-03-10T21:38:48.810Z,26.33
2023-03-10T21:41:22.303Z,22.00
2023-03-10T21:43:48.702Z,26.77
2023-03-10T21:46:14.641Z,29.83
2023-03-10T21:48:40.894Z,21.85
2023-03-10T21:51:09.031Z,25.70
2023-03-10T21:53:35.120Z,26.42
2023-03-10T21:56:01.233Z,24.42
2023-03-10T21:58:27.529Z,21.52
2023-03-10T22:00:56.015Z,27.58
2023-03-10T22:03:22.127Z,29.10
2023-03-10T22:05:48.443Z,26.73
2023-03-10T22:08:14.557Z,29.80
2023-03-10T22:10:41.322Z,29.23
2023-03-10T22:13:08.306Z,26.90
2023-03-10T22:15:34.473Z,23.65
2023-03-10T22:18:00.328Z,25.05
2023-03-10T22:20:27.070Z,26.20
2023-03-10T22:22:53.664Z,23.88
2023-03-10T22:25:19.964Z,26.02
2023-03-10T22:27:48.317Z,22.55
2023-03-10T22:30:14.589Z,23.95
2023-03-10T22:32:40.612Z,24.08
2023-03-10T22:35:06.893Z,28.55
2023-03-10T22:37:32.900Z,23.92
2023-03-10T22:39:58.811Z,24.90
2023-03-10T22:42:24.605Z,23.05
2023-03-10T22:44:50.385Z,22.60
2023-03-10T22:47:16.903Z,25.52
2023-03-10T22:49:42.753Z,27.02
2023-03-10T22:52:09.374Z,19.13
2023-03-10T22:54:36.009Z,24.52
2023-03-10T22:57:01.826Z,21.13
2023-03-10T22:59:27.669Z,20.50
2023-03-10T23:01:53.628Z,17.45
2023-03-10T23:04:19.582Z,20.38
2023-03-10T23:06:45.842Z,15.25
2023-03-10T23:09:11.744Z,17.45
2023-03-10T23:11:37.840Z,22.58
2023-03-10T23:14:03.733Z,18.80
2023-03-10T23:16:33.916Z,17.08
2023-03-10T23:18:59.986Z,20.25
2023-03-10T23:21:25.907Z,19.38
2023-03-10T23:23:51.952Z,20.15
2023-03-10T23:26:17.725Z,20.27
2023-03-10T23:28:43.503Z,19.25
2023-03-10T23:31:09.556Z,19.23
2023-03-10T23:33:40.829Z,18.93
2023-03-10T23:36:06.835Z,14.13
2023-03-10T23:38:35.256Z,20.90
2023-03-10T23:41:01.349Z,19.87
2023-03-10T23:43:27.433Z,17.57
2023-03-10T23:45:53.305Z,16.83
2023-03-10T23:48:19.382Z,19.23
2023-03-10T23:50:46.908Z,17.63
2023-03-10T23:53:13.708Z,18.77
2023-03-10T23:55:40.596Z,17.20
2023-03-10T23:58:07.203Z,17.57
